Time;durP1;ratioP1;P1;durP2;ratioP2;P2;SDS_P1;SDS_P2;PMS_P1;PMS_P2;Temp;Humidity;BMP_temperature;BMP_pressure;BME280_temperature;BME280_humidity;BME280_pressure;Samples;Min_cycle;Max_cycle;Signal;HPM_P1;HPM_P2
2022/07/27 10:14:20;;;;;;;5.00;3.40;;;;;;;;;;5031322;28;20033;-57
2022/07/27 10:16:50;;;;;;;5.45;2.85;;;;;;;;;;5034104;28;20022;-57
2022/07/27 10:19:42;;;;;;;4.55;3.22;;;;;;;;;;5035938;28;20041;-57
2022/07/27 10:22:08;;;;;;;4.80;3.65;;;;;;;;;;5030407;28;20044;-59
2022/07/27 10:24:35;;;;;;;4.65;2.72;;;;;;;;;;5034080;28;20041;-60
2022/07/27 10:27:16;;;;;;;4.18;3.22;;;;;;;;;;5034616;28;20454;-57
2022/07/27 10:29:43;;;;;;;5.55;3.10;;;;;;;;;;5034035;28;20029;-60
2022/07/27 10:32:09;;;;;;;5.05;3.20;;;;;;;;;;5033657;28;20025;-60
2022/07/27 10:34:36;;;;;;;4.35;3.13;;;;;;;;;;5032577;28;20037;-59
2022/07/27 10:37:09;;;;;;;5.50;2.53;;;;;;;;;;5032500;28;20076;-59
2022/07/27 10:39:39;;;;;;;4.88;3.40;;;;;;;;;;5052163;28;20108;-57
2022/07/27 10:42:17;;;;;;;7.25;3.17;;;;;;;;;;5039427;28;20424;-58
2022/07/27 10:45:04;;;;;;;3.30;3.00;;;;;;;;;;5039565;28;20025;-58
2022/07/27 10:47:38;;;;;;;4.07;3.45;;;;;;;;;;5021802;28;20123;-60
2022/07/27 10:50:18;;;;;;;3.85;2.85;;;;;;;;;;5032047;28;20029;-60
2022/07/27 10:52:44;;;;;;;5.05;2.92;;;;;;;;;;5032507;28;20417;-58
2022/07/27 10:55:33;;;;;;;3.35;2.88;;;;;;;;;;5032843;28;20032;-57
2022/07/27 10:58:02;;;;;;;4.28;3.10;;;;;;;;;;5033535;28;20127;-58
2022/07/27 11:00:47;;;;;;;5.70;2.90;;;;;;;;;;5030277;28;20128;-59
2022/07/27 11:03:26;;;;;;;3.80;2.60;;;;;;;;;;5029455;28;20475;-58
2022/07/27 11:06:06;;;;;;;3.42;2.88;;;;;;;;;;5032557;28;20390;-59
2022/07/27 11:08:32;;;;;;;6.15;2.80;;;;;;;;;;5015403;28;20037;-60
2022/07/27 11:10:59;;;;;;;4.43;3.20;;;;;;;;;;5032888;28;20026;-59
2022/07/27 11:13:26;;;;;;;4.05;3.05;;;;;;;;;;5030300;28;20293;-59
2022/07/27 11:15:57;;;;;;;3.22;2.60;;;;;;;;;;5030665;28;20052;-55
2022/07/27 11:18:27;;;;;;;3.10;2.80;;;;;;;;;;5021517;28;20459;-60
2022/07/27 11:21:12;;;;;;;3.80;2.40;;;;;;;;;;5050142;28;20021;-58
2022/07/27 11:23:38;;;;;;;2.88;2.67;;;;;;;;;;5043646;28;20013;-56
2022/07/27 11:26:05;;;;;;;3.78;2.90;;;;;;;;;;5028020;28;20052;-58
2022/07/27 11:28:32;;;;;;;4.75;2.55;;;;;;;;;;5034998;28;20035;-58
2022/07/27 11:30:59;;;;;;;4.18;2.75;;;;;;;;;;5032768;28;20030;-60
2022/07/27 11:33:25;;;;;;;4.72;2.30;;;;;;;;;;5032497;28;20029;-60
2022/07/27 11:35:54;;;;;;;3.35;2.60;;;;;;;;;;5032648;28;20037;-60
2022/07/27 11:38:21;;;;;;;5.10;2.90;;;;;;;;;;5030919;28;20489;-60
2022/07/27 11:40:47;;;;;;;;;;;;;;;;;;5031693;28;20021;-58
2022/07/27 11:43:30;;;;;;;3.53;2.40;;;;;;;;;;5014561;28;20388;-60
2022/07/27 11:45:56;;;;;;;6.20;2.40;;;;;;;;;;5032523;28;20038;-58
2022/07/27 11:48:22;;;;;;;2.83;2.40;;;;;;;;;;5031997;28;20026;-60
2022/07/27 11:51:06;;;;;;;2.58;2.17;;;;;;;;;;5014445;28;20502;-59
2022/07/27 11:53:32;;;;;;;2.80;2.50;;;;;;;;;;5031988;28;20509;-59
2022/07/27 11:55:59;;;;;;;3.08;2.53;;;;;;;;;;5032515;28;20442;-58
2022/07/27 11:58:25;;;;;;;2.60;2.38;;;;;;;;;;5031853;28;20494;-59
2022/07/27 12:00:51;;;;;;;3.55;2.45;;;;;;;;;;5031906;28;20509;-59
2022/07/27 12:03:22;;;;;;;3.47;2.08;;;;;;;;;;5031710;28;20018;-59
2022/07/27 12:05:55;;;;;;;2.65;2.45;;;;;;;;;;5030885;28;20077;-58
2022/07/27 12:08:29;;;;;;;4.00;2.83;;;;;;;;;;5031972;28;20029;-58
2022/07/27 12:10:58;;;;;;;2.40;2.20;;;;;;;;;;5031676;28;20550;-59
2022/07/27 12:13:35;;;;;;;4.10;2.40;;;;;;;;;;5031636;28;20025;-57
2022/07/27 12:16:02;;;;;;;;;;;;;;;;;;5032342;28;20398;-58
2022/07/27 12:18:42;;;;;;;6.28;2.35;;;;;;;;;;5031239;28;20424;-55
2022/07/27 12:21:18;;;;;;;3.60;2.58;;;;;;;;;;5031933;28;20033;-58
2022/07/27 12:23:51;;;;;;;3.38;2.40;;;;;;;;;;5031625;28;20441;-56
2022/07/27 12:26:21;;;;;;;2.20;2.00;;;;;;;;;;5014190;28;20018;-58
2022/07/27 12:29:04;;;;;;;3.63;2.33;;;;;;;;;;5013880;28;20041;-57
2022/07/27 12:31:30;;;;;;;3.15;2.50;;;;;;;;;;5031534;28;20026;-59
2022/07/27 12:33:57;;;;;;;2.30;2.10;;;;;;;;;;5031635;28;20021;-58
2022/07/27 12:36:26;;;;;;;3.17;2.63;;;;;;;;;;5031563;28;20029;-58
2022/07/27 12:38:52;;;;;;;2.72;1.95;;;;;;;;;;5031651;28;20064;-58
2022/07/27 12:41:25;;;;;;;2.25;1.92;;;;;;;;;;5031364;28;20033;-58
2022/07/27 12:44:10;;;;;;;4.60;2.45;;;;;;;;;;5031597;28;20033;-59
2022/07/27 12:47:00;;;;;;;3.35;2.60;;;;;;;;;;5031437;28;20071;-59
2022/07/27 12:49:33;;;;;;;3.35;2.40;;;;;;;;;;4998351;28;20478;-54
2022/07/27 12:52:08;;;;;;;9.05;3.10;;;;;;;;;;5030761;28;20101;-58
2022/07/27 12:54:35;;;;;;;2.97;2.63;;;;;;;;;;5031458;28;20450;-58
2022/07/27 12:57:01;;;;;;;;;;;;;;;;;;5031957;28;20588;-58
2022/07/27 12:59:27;;;;;;;4.70;3.28;;;;;;;;;;5031154;28;20011;-58
2022/07/27 13:01:54;;;;;;;3.60;2.50;;;;;;;;;;5031251;28;20022;-58
2022/07/27 13:04:21;;;;;;;3.88;2.75;;;;;;;;;;5013705;28;20521;-57
2022/07/27 13:06:47;;;;;;;2.65;2.45;;;;;;;;;;5031169;28;20025;-58
2022/07/27 13:09:13;;;;;;;2.67;2.47;;;;;;;;;;5030022;28;20030;-60
2022/07/27 13:11:39;;;;;;;2.80;2.30;;;;;;;;;;5030775;28;20041;-59
2022/07/27 13:14:06;;;;;;;3.67;2.42;;;;;;;;;;5030973;28;20037;-58
2022/07/27 13:16:32;;;;;;;2.88;2.53;;;;;;;;;;5031182;28;20033;-55
2022/07/27 13:18:58;;;;;;;4.55;2.35;;;;;;;;;;5031099;28;20025;-57
2022/07/27 13:21:24;;;;;;;3.28;2.28;;;;;;;;;;5031114;28;20405;-57
2022/07/27 13:23:50;;;;;;;3.05;2.35;;;;;;;;;;5031258;28;20095;-56
2022/07/27 13:26:19;;;;;;;2.88;2.67;;;;;;;;;;5031234;28;20018;-58
2022/07/27 13:28:47;;;;;;;4.07;2.47;;;;;;;;;;5031139;28;20032;-58
2022/07/27 13:31:13;;;;;;;2.33;2.05;;;;;;;;;;5033371;28;20030;-53
2022/07/27 13:33:39;;;;;;;4.10;2.17;;;;;;;;;;5034761;28;20026;-56
2022/07/27 13:36:06;;;;;;;3.35;2.25;;;;;;;;;;5034934;28;20037;-57
2022/07/27 13:38:32;;;;;;;3.47;2.33;;;;;;;;;;5034937;28;20076;-56
2022/07/27 13:40:58;;;;;;;4.53;2.70;;;;;;;;;;5034616;28;20025;-56
2022/07/27 13:43:24;;;;;;;2.47;2.03;;;;;;;;;;5034631;28;20095;-57
2022/07/27 13:45:50;;;;;;;3.88;2.30;;;;;;;;;;5034750;28;20107;-56
2022/07/27 13:48:16;;;;;;;2.80;2.60;;;;;;;;;;5034494;28;20390;-58
2022/07/27 13:50:43;;;;;;;5.25;2.45;;;;;;;;;;5034477;28;20390;-57
2022/07/27 13:53:09;;;;;;;4.18;2.22;;;;;;;;;;5034375;28;20033;-55
2022/07/27 13:55:35;;;;;;;2.53;2.33;;;;;;;;;;5034509;28;20034;-56
2022/07/27 13:58:01;;;;;;;3.60;2.85;;;;;;;;;;5016636;28;20021;-55
2022/07/27 14:00:27;;;;;;;5.50;2.55;;;;;;;;;;5034284;28;20381;-58
2022/07/27 14:02:53;;;;;;;2.78;2.30;;;;;;;;;;5034258;28;20662;-60
2022/07/27 14:05:19;;;;;;;3.38;2.85;;;;;;;;;;5034171;28;20031;-60
2022/07/27 14:07:45;;;;;;;2.88;2.20;;;;;;;;;;5034209;28;20036;-60
2022/07/27 14:12:57;;;;;;;2.65;2.45;;;;;;;;;;5033890;28;20088;-60
2022/07/27 14:15:23;;;;;;;3.15;2.50;;;;;;;;;;5034195;28;20029;-60
2022/07/27 14:17:49;;;;;;;2.03;1.92;;;;;;;;;;5034000;28;20030;-60
2022/07/27 14:20:15;;;;;;;2.95;2.13;;;;;;;;;;5033980;28;20390;-60
2022/07/27 14:22:41;;;;;;;5.07;2.65;;;;;;;;;;5033316;28;20448;-61
2022/07/27 14:25:08;;;;;;;4.85;2.55;;;;;;;;;;5034097;28;20025;-61
2022/07/27 14:27:34;;;;;;;3.88;2.33;;;;;;;;;;5034281;28;20371;-59
2022/07/27 14:30:00;;;;;;;3.75;3.17;;;;;;;;;;5016381;28;20650;-58
2022/07/27 14:32:26;;;;;;;2.58;2.20;;;;;;;;;;5032352;28;20291;-58
2022/07/27 14:34:53;;;;;;;3.08;2.40;;;;;;;;;;5033468;28;20112;-58
2022/07/27 14:37:19;;;;;;;2.50;2.22;;;;;;;;;;5034194;28;20017;-59
2022/07/27 14:39:45;;;;;;;3.58;2.78;;;;;;;;;;5033939;28;20022;-58
2022/07/27 14:42:11;;;;;;;3.30;2.47;;;;;;;;;;5032876;28;20035;-59
2022/07/27 14:44:37;;;;;;;4.32;2.60;;;;;;;;;;5030766;28;20129;-58
2022/07/27 14:47:03;;;;;;;3.08;2.53;;;;;;;;;;5033502;28;20032;-59
2022/07/27 14:49:29;;;;;;;3.47;2.60;;;;;;;;;;5053468;28;20090;-59
2022/07/27 14:51:55;;;;;;;2.60;2.40;;;;;;;;;;5033330;28;20039;-58
2022/07/27 14:54:22;;;;;;;2.97;2.50;;;;;;;;;;5051831;28;20033;-59
2022/07/27 14:56:48;;;;;;;4.55;3.72;;;;;;;;;;5048184;28;20017;-59
2022/07/27 14:59:14;;;;;;;4.70;2.70;;;;;;;;;;5033517;28;20466;-59
2022/07/27 15:01:40;;;;;;;3.25;2.78;;;;;;;;;;5033232;28;20033;-58
2022/07/27 15:04:06;;;;;;;3.33;3.00;;;;;;;;;;5033332;28;20466;-57
2022/07/27 15:06:32;;;;;;;3.95;2.65;;;;;;;;;;5033145;28;20497;-59
2022/07/27 15:08:58;;;;;;;3.75;2.85;;;;;;;;;;5029064;28;20033;-59
2022/07/27 15:11:24;;;;;;;5.45;2.65;;;;;;;;;;5050252;28;20114;-59
2022/07/27 15:13:50;;;;;;;2.40;2.20;;;;;;;;;;5047881;28;20504;-59
2022/07/27 15:16:16;;;;;;;2.60;2.40;;;;;;;;;;5032304;28;20044;-58
2022/07/27 15:18:43;;;;;;;2.75;2.50;;;;;;;;;;5031829;28;20402;-58
2022/07/27 15:21:09;;;;;;;3.65;2.80;;;;;;;;;;5033037;28;20018;-58
2022/07/27 15:23:36;;;;;;;5.18;2.40;;;;;;;;;;5031409;28;20029;-58
2022/07/27 15:26:02;;;;;;;3.38;2.72;;;;;;;;;;5032910;28;20034;-58
2022/07/27 15:28:28;;;;;;;4.47;2.97;;;43.60;31.50;;;;;;5010904;28;20087;-58
2022/07/27 15:30:54;;;;;;;3.85;2.60;;;;;;;;;;5037403;28;20029;-58
2022/07/27 15:33:20;;;;;;;4.75;3.15;;;;;;;;;;5031309;28;20457;-58
2022/07/27 15:35:46;;;;;;;8.70;3.15;;;;;;;;;;5031033;28;20057;-57
2022/07/27 15:38:12;;;;;;;3.35;2.30;;;;;;;;;;5021589;28;20025;-58
2022/07/27 15:40:40;;;;;;;;;;;;;;;;;;5024076;28;20037;-57
2022/07/27 15:43:11;;;;;;;3.65;2.63;;;;;;;;;;5006513;28;19916;-58
2022/07/27 15:45:39;;;;;;;5.50;3.03;;;;;;;;;;5032569;28;20168;-58
2022/07/27 15:48:05;;;;;;;5.65;3.28;;;;;;;;;;5030872;28;20096;-59
2022/07/27 15:50:32;;;;;;;2.40;2.15;;;;;;;;;;5031439;28;20029;-58
2022/07/27 15:52:58;;;;;;;4.45;2.67;;;;;;;;;;5029753;28;20475;-58
2022/07/27 15:55:24;;;;;;;5.22;2.60;;;;;;;;;;5013287;28;20026;-58
2022/07/27 15:57:50;;;;;;;3.15;2.40;;;;;;;;;;5030122;28;20022;-58
2022/07/27 16:00:16;;;;;;;4.72;2.67;;;;;;;;;;5012533;28;20045;-58
2022/07/27 16:02:42;;;;;;;7.15;2.90;;;;;;;;;;5011967;28;20018;-58
2022/07/27 16:05:08;;;;;;;4.45;3.45;;;;;;;;;;5011714;28;20033;-60
2022/07/27 16:07:34;;;;;;;2.97;2.65;;;;;;;;;;5012331;28;20038;-61
2022/07/27 16:10:00;;;;;;;2.60;2.25;;;;;;;;;;5012708;28;20371;-61
2022/07/27 16:12:26;;;;;;;4.88;2.88;;;;;;;;;;5012201;28;20108;-61
2022/07/27 16:14:53;;;;;;;3.05;2.55;;;;;;;;;;5010976;28;20487;-59
2022/07/27 16:17:19;;;;;;;;;;;;;;;;;;5012748;28;20026;-59
2022/07/27 16:19:45;;;;;;;3.55;2.85;;;;;;;;;;5012282;28;19910;-60
2022/07/27 16:22:11;;;;;;;2.25;2.05;;;;;;;;;;5011963;28;20083;-60
2022/07/27 16:24:37;;;;;;;4.90;2.50;;;;;;;;;;5011018;28;20032;-61
2022/07/27 16:27:04;;;;;;;2.42;2.22;;;;;;;;;;5089500;22;20516;-58
2022/07/27 16:29:30;;;;;;;2.53;2.33;;;;;;;;;;5091858;28;20149;-59
2022/07/27 16:31:57;;;;;;;3.10;2.35;;;;;;;;;;5091695;28;20030;-59
2022/07/27 16:34:30;;;;;;;2.90;2.60;;;;;;;;;;5092034;28;20365;-57
2022/07/27 16:36:56;;;;;;;3.10;2.45;;;;;;;;;;5091959;28;20024;-57
2022/07/27 16:39:23;;;;;;;3.33;2.67;;;;;;;;;;5091966;28;20024;-58
2022/07/27 16:41:50;;;;;;;3.78;2.72;;;;;;;;;;5091572;28;20543;-58
2022/07/27 16:44:17;;;;;;;3.53;2.97;;;;;;;;;;5091881;28;20020;-58
2022/07/27 16:46:43;;;;;;;2.80;2.40;;;;;;;;;;5091730;28;20062;-58
2022/07/27 16:49:10;;;;;;;4.18;2.80;;;;;;;;;;5073702;28;20119;-58
2022/07/27 16:51:36;;;;;;;4.68;2.72;;;;;;;;;;5091601;28;20016;-58
2022/07/27 16:54:03;;;;;;;2.92;2.63;;;;;;;;;;5091727;28;20031;-58
2022/07/27 16:56:29;;;;;;;3.20;2.60;;;39.40;35.60;;;;;;5091733;28;20498;-58
2022/07/27 16:58:54;;;;;;;3.25;2.90;;;34.40;43.30;;;;;;5092040;28;20472;-58
2022/07/27 17:01:20;;;;;;;3.15;2.63;;;34.20;43.60;;;;;;5091795;28;20170;-57
2022/07/27 17:03:47;;;;;;;4.30;2.50;;;34.20;44.00;;;;;;5091551;28;20024;-58
2022/07/27 17:06:14;;;;;;;6.22;3.38;;;34.20;43.80;;;;;;5095817;28;20016;-58
2022/07/27 17:08:39;;;;;;;2.83;2.63;;;34.20;43.60;;;;;;5095846;28;20035;-58
2022/07/27 17:11:07;;;;;;;7.28;3.10;;;34.20;44.10;;;;;;5095771;28;20024;-58
2022/07/27 17:13:34;;;;;;;26.63;3.72;;;;;;;;;;5095538;28;20016;-58
2022/07/27 17:16:00;;;;;;;6.85;2.85;;;;;;;;;;5095542;28;20488;-58
2022/07/27 17:18:26;;;;;;;6.97;2.75;;;;;;;;;;5095480;28;20492;-56
2022/07/27 17:20:52;;;;;;;4.20;2.75;;;;;;;;;;5094533;28;20059;-54
2022/07/27 17:23:18;;;;;;;4.70;2.88;;;;;;;;;;5087597;28;20481;-54
2022/07/27 17:25:44;;;;;;;5.22;2.97;;;34.20;43.60;;;;;;5093977;28;20060;-52
2022/07/27 17:28:10;;;;;;;6.07;3.03;;;;;;;;;;5095065;28;20507;-55
2022/07/27 17:30:36;;;;;;;4.95;2.78;;;;;;;;;;5076956;28;20062;-54
2022/07/27 17:33:02;;;;;;;3.22;2.60;;;;;;;;;;5094663;28;20070;-53
2022/07/27 17:35:28;;;;;;;2.83;2.53;;;;;;;;;;5095022;28;20024;-53
2022/07/27 17:37:55;;;;;;;5.40;2.85;;;;;;;;;;5092947;28;20020;-53
2022/07/27 17:40:21;;;;;;;5.65;2.92;;;;;;;;;;5094556;28;20052;-54
2022/07/27 17:42:47;;;;;;;3.20;2.90;;;;;;;;;;5094023;28;20142;-54
2022/07/27 17:45:13;;;;;;;3.00;2.78;;;;;;;;;;5091157;28;20023;-52
2022/07/27 17:47:39;;;;;;;5.45;3.28;;;;;;;;;;5092917;28;20077;-53
2022/07/27 17:50:06;;;;;;;4.18;2.65;;;;;;;;;;5094943;28;20020;-53
2022/07/27 17:52:32;;;;;;;;;;;;;;;;;;5074504;28;20043;-55
2022/07/27 17:54:58;;;;;;;4.10;3.10;;;;;;;;;;5094361;28;19955;-54
2022/07/27 17:57:24;;;;;;;;;;;;;;;;;;5095179;28;20021;-55
2022/07/27 17:59:50;;;;;;;4.88;3.17;;;;;;;;;;5094629;28;19908;-55
2022/07/27 18:02:17;;;;;;;4.38;3.33;;;34.00;44.60;;;;;;5094459;28;20032;-55
2022/07/27 18:04:44;;;;;;;3.90;3.45;;;32.40;50.40;;;;;;5094555;28;20028;-53
2022/07/27 18:07:10;;;;;;;3.95;2.75;;;32.30;51.70;;;;;;5076256;28;20028;-53
2022/07/27 18:09:36;;;;;;;3.35;3.05;;;32.20;51.20;;;;;;5094466;28;20054;-55
2022/07/27 18:12:01;;;;;;;4.05;3.38;;;32.10;51.70;;;;;;5075742;28;20427;-54
2022/07/27 18:14:27;;;;;;;3.58;3.20;;;32.10;51.80;;;;;;5094098;28;20058;-54
2022/07/27 18:16:53;;;;;;;5.40;3.73;;;32.10;52.10;;;;;;5075169;28;20465;-53
2022/07/27 18:19:19;;;;;;;7.43;3.45;;;32.00;52.70;;;;;;5089367;28;20277;-53
2022/07/27 18:21:44;;;;;;;5.40;3.20;;;31.90;52.50;;;;;;5094214;28;20032;-55
2022/07/27 18:24:10;;;;;;;4.20;3.07;;;31.90;52.70;;;;;;5086408;28;20423;-54
2022/07/27 18:26:37;;;;;;;4.95;3.88;;;;;;;;;;5066921;28;20270;-55
2022/07/27 18:29:03;;;;;;;;;;;;;;;;;;5094713;28;20052;-53
2022/07/27 18:31:29;;;;;;;5.20;3.40;;;;;;;;;;5090262;28;20496;-54
2022/07/27 18:33:55;;;;;;;4.40;3.10;;;;;;;;;;5077763;28;20096;-52
2022/07/27 18:36:21;;;;;;;4.63;3.67;;;31.80;52.30;;;;;;5076574;28;20492;-55
2022/07/27 18:38:50;;;;;;;6.70;3.30;;;;;;;;;;5093997;28;20065;-53
2022/07/27 18:41:17;;;;;;;6.78;3.45;;;31.40;53.70;;;;;;5094033;28;20186;-53
2022/07/27 18:43:50;;;;;;;5.32;3.40;;;31.10;54.70;;;;;;5093857;28;20024;-55
2022/07/27 18:46:19;;;;;;;6.25;3.78;;;31.00;54.20;;;;;;5093976;28;20035;-53
2022/07/27 18:48:46;;;;;;;6.20;4.63;;;31.00;54.70;;;;;;5090598;28;20130;-55
2022/07/27 18:51:12;;;;;;;5.90;4.63;;;30.90;55.00;;;;;;5093998;28;20025;-52
2022/07/27 18:53:37;;;;;;;6.28;4.15;;;30.90;55.60;;;;;;5093372;28;20106;-53
2022/07/27 18:56:03;;;;;;;6.20;4.70;;;30.80;55.60;;;;;;5088499;28;20173;-53
2022/07/27 18:58:29;;;;;;;4.90;4.40;;;30.60;56.00;;;;;;5075474;28;20023;-55
2022/07/27 19:00:55;;;;;;;5.67;4.83;;;30.60;56.70;;;;;;5086455;28;20020;-54
2022/07/27 19:03:21;;;;;;;9.85;4.40;;;30.40;57.00;;;;;;5073432;28;20025;-54
2022/07/27 19:05:49;;;;;;;4.35;3.95;;;30.30;57.40;;;;;;5073176;28;20427;-53
2022/07/27 19:08:16;;;;;;;10.60;4.60;;;30.30;57.50;;;;;;5073162;28;20024;-54
2022/07/27 19:10:43;;;;;;;5.32;4.80;;;30.20;57.30;;;;;;5073256;28;20028;-53
2022/07/27 19:13:09;;;;;;;6.47;4.70;;;;;;;;;;5088011;28;20085;-53
2022/07/27 19:15:36;;;;;;;6.15;5.13;;;;;;;;;;5092060;28;20031;-55
2022/07/27 19:18:02;;;;;;;6.13;5.20;;;30.00;57.10;;;;;;5083642;28;20030;-54
2022/07/27 19:20:28;;;;;;;;;;;29.80;57.20;;;;;;5079543;28;20575;-52
2022/07/27 19:22:56;;;;;;;8.68;5.10;;;29.70;58.30;;;;;;5093001;28;19957;-52
2022/07/27 19:25:22;;;;;;;4.53;4.10;;;29.60;57.90;;;;;;5093174;28;20028;-54
2022/07/27 19:27:48;;;;;;;4.97;4.47;;;29.60;57.90;;;;;;5092921;28;20403;-53
2022/07/27 19:30:14;;;;;;;6.55;4.40;;;29.60;57.60;;;;;;5079420;28;20028;-55
2022/07/27 19:32:41;;;;;;;6.47;4.65;;;29.60;57.90;;;;;;5087308;28;20492;-53
2022/07/27 19:35:08;;;;;;;5.40;4.82;;;29.60;58.10;;;;;;5073039;28;20032;-53
2022/07/27 19:37:34;;;;;;;8.02;5.03;;;29.50;58.00;;;;;;5089695;28;20457;-55
2022/07/27 19:40:01;;;;;;;7.38;5.47;;;29.50;58.10;;;;;;5085278;28;20031;-54
2022/07/27 19:42:27;;;;;;;8.43;5.53;;;29.50;58.00;;;;;;5092606;28;20035;-52
2022/07/27 19:44:54;;;;;;;7.60;5.20;;;29.50;58.40;;;;;;5089001;28;20021;-53
2022/07/27 19:47:19;;;;;;;7.80;5.65;;;29.40;58.00;;;;;;5078278;28;20342;-52
2022/07/27 19:49:46;;;;;;;10.60;6.03;;;29.40;58.00;;;;;;5078552;28;20050;-52
2022/07/27 19:52:12;;;;;;;6.80;5.70;;;29.30;58.00;;;;;;5092208;28;20157;-53
2022/07/27 19:54:38;;;;;;;6.65;5.95;;;29.30;58.40;;;;;;5074145;28;20032;-54
2022/07/27 19:57:04;;;;;;;11.13;6.97;;;29.20;58.40;;;;;;5092268;28;20472;-55
2022/07/27 19:59:30;;;;;;;10.38;5.93;;;29.20;59.00;;;;;;5073886;28;20097;-54
2022/07/27 20:01:56;;;;;;;6.63;5.93;;;29.10;59.10;;;;;;5092330;28;20024;-52
2022/07/27 20:04:22;;;;;;;9.85;5.97;;;29.10;59.20;;;;;;5091233;28;20103;-54
2022/07/27 20:06:47;;;;;;;8.70;5.73;;;29.10;59.30;;;;;;5074052;28;20111;-55
2022/07/27 20:09:15;;;;;;;7.47;5.90;;;29.10;59.30;;;;;;5090609;28;20026;-54
2022/07/27 20:11:41;;;;;;;10.50;6.47;;;28.90;60.00;;;;;;5085340;28;20020;-55
2022/07/27 20:14:07;;;;;;;7.35;6.63;;;28.90;60.00;;;;;;5072101;28;20032;-52
2022/07/27 20:16:36;;;;;;;8.95;8.07;;;28.90;60.40;;;;;;5089539;28;20024;-52
2022/07/27 20:19:02;;;;;;;10.68;7.47;;;28.80;60.50;;;;;;5091959;28;20054;-53
2022/07/27 20:21:30;;;;;;;8.95;7.32;;;;;;;;;;5067384;28;20039;-52
2022/07/27 20:24:00;;;;;;;10.10;8.13;;;;;;;;;;5068028;28;20024;-53
2022/07/27 20:26:26;;;;;;;8.43;7.50;;;;;;;;;;5090817;28;20070;-52
2022/07/27 20:28:52;;;;;;;10.82;7.78;;;;;;;;;;5072239;28;20543;-55
2022/07/27 20:31:19;;;;;;;9.10;7.82;;;;;;;;;;5086933;28;20064;-52
2022/07/27 20:33:47;;;;;;;10.27;8.00;;;;;;;;;;5086604;28;20032;-52
2022/07/27 20:36:13;;;;;;;12.63;9.25;;;;;;;;;;5083681;28;20397;-55
2022/07/27 20:38:39;;;;;;;17.55;9.05;;;;;;;;;;5063352;28;20446;-55
2022/07/27 20:41:05;;;;;;;9.90;7.75;;;;;;;;;;5082474;28;20016;-55
2022/07/27 20:43:32;;;;;;;12.05;8.48;;;;;;;;;;5087561;28;20039;-55
2022/07/27 20:45:58;;;;;;;10.48;8.82;;;;;;;;;;5083269;28;20094;-53
2022/07/27 20:48:24;;;;;;;11.23;9.68;;;;;;;;;;5090519;28;20127;-55
2022/07/27 20:50:50;;;;;;;10.85;8.35;;;;;;;;;;5087779;28;20547;-54
2022/07/27 20:53:18;;;;;;;10.40;9.15;;;;;;;;;;5091480;28;20484;-52
2022/07/27 20:55:45;;;;;;;12.13;8.55;;;;;;;;;;5091283;28;20586;-52
2022/07/27 20:58:11;;;;;;;10.77;9.63;;;;;;;;;;5091549;28;20024;-53
2022/07/27 21:00:37;;;;;;;9.75;8.40;;;;;;;;;;5090861;28;20046;-52
2022/07/27 21:03:03;;;;;;;9.82;8.93;;;;;;;;;;5091283;28;20565;-55
2022/07/27 21:05:30;;;;;;;12.35;10.27;;;;;;;;;;5091109;28;20032;-55
2022/07/27 21:07:56;;;;;;;13.65;10.70;;;;;;;;;;5091297;28;20404;-54
2022/07/27 21:10:22;;;;;;;;;;;;;;;;;;5092311;28;20020;-54
2022/07/27 21:12:48;;;;;;;12.30;9.35;;;;;;;;;;5091192;28;19916;-55
2022/07/27 21:15:14;;;;;;;12.10;9.20;;;;;;;;;;5091235;28;20060;-53
2022/07/27 21:17:41;;;;;;;14.40;10.52;;;;;;;;;;5090477;28;20391;-53
2022/07/27 21:20:07;;;;;;;18.05;10.50;;;;;;;;;;5091225;28;20090;-52
2022/07/27 21:22:34;;;;;;;15.60;9.80;;;;;;;;;;5073142;28;20028;-54
2022/07/27 21:25:00;;;;;;;11.73;10.52;;;;;;;;;;5091486;28;20035;-52
2022/07/27 21:27:26;;;;;;;15.98;10.73;;;;;;;;;;5090821;28;20042;-54
2022/07/27 21:29:52;;;;;;;11.85;10.60;;;;;;;;;;5091342;28;20307;-54
2022/07/27 21:32:18;;;;;;;11.40;10.25;;;;;;;;;;5090644;28;20462;-52
2022/07/27 21:34:44;;;;;;;13.52;10.77;;;;;;;;;;5072789;28;20039;-54
2022/07/27 21:37:10;;;;;;;11.90;10.15;;;;;;;;;;5091021;28;20028;-53
2022/07/27 21:39:36;;;;;;;16.80;10.43;;;;;;;;;;5090905;28;20024;-53
2022/07/27 21:42:03;;;;;;;13.35;11.35;;;;;;;;;;5090569;28;20598;-54
2022/07/27 21:44:29;;;;;;;13.88;11.15;;;;;;;;;;5091270;28;20028;-54
2022/07/27 21:46:55;;;;;;;15.07;11.32;;;;;;;;;;5090464;28;20499;-53
2022/07/27 21:49:21;;;;;;;13.40;11.02;;;;;;;;;;5090899;28;20384;-52
2022/07/27 21:51:47;;;;;;;12.77;11.55;;;;;;;;;;5082496;28;20024;-52
2022/07/27 21:54:13;;;;;;;11.85;10.60;;;;;;;;;;5094209;28;20059;-54
2022/07/27 21:56:46;;;;;;;13.00;11.52;;;;;;;;;;5094510;28;20032;-54
2022/07/27 21:59:12;;;;;;;13.15;11.80;;;;;;;;;;5078940;28;20030;-53
2022/07/27 22:01:38;;;;;;;14.75;11.82;;;;;;;;;;5094301;28;20484;-52
2022/07/27 22:04:04;;;;;;;13.95;12.45;;;;;;;;;;5094408;28;20446;-52
2022/07/27 22:06:31;;;;;;;13.23;10.65;;;;;;;;;;5094142;28;20020;-55
2022/07/27 22:08:57;;;;;;;17.30;11.90;;;;;;;;;;5094516;28;20077;-54
2022/07/27 22:11:23;;;;;;;13.18;11.77;;;;;;;;;;5094463;28;20024;-54
2022/07/27 22:13:49;;;;;;;13.43;12.00;;;;;;;;;;5094343;28;20028;-54
2022/07/27 22:16:15;;;;;;;18.63;12.02;;;;;;;;;;5094000;28;20518;-54
2022/07/27 22:18:41;;;;;;;12.55;11.25;;;;;;;;;;5075844;28;20020;-55
2022/07/27 22:21:07;;;;;;;16.85;11.43;;;;;;;;;;5094274;28;20024;-54
2022/07/27 22:23:33;;;;;;;16.90;12.07;;;;;;;;;;5093991;28;20396;-53
2022/07/27 22:25:59;;;;;;;13.73;12.18;;;;;;;;;;5133361;22;20598;-56
2022/07/27 22:28:25;;;;;;;15.05;12.40;;;;;;;;;;5098240;28;20412;-56
2022/07/27 22:30:52;;;;;;;19.77;12.23;;;;;;;;;;5076951;28;20111;-55
2022/07/27 22:33:18;;;;;;;13.55;12.00;;;;;;;;;;5104875;28;20020;-57
2022/07/27 22:35:44;;;;;;;12.55;11.30;;;;;;;;;;5114215;28;20042;-58
2022/07/27 22:38:10;;;;;;;13.38;11.82;;;;;;;;;;5111371;28;20055;-58
2022/07/27 22:40:36;;;;;;;15.10;11.35;;;;;;;;;;5108480;28;20028;-58
2022/07/27 22:43:02;;;;;;;17.50;11.82;;;;;;;;;;5099072;28;20030;-57
2022/07/27 22:45:28;;;;;;;14.77;11.93;;;;;;;;;;5101080;28;20059;-58
2022/07/27 22:47:54;;;;;;;16.73;12.68;;;;;;;;;;5094172;28;20369;-57
2022/07/27 22:50:20;;;;;;;14.82;13.32;;;;;;;;;;5075903;28;20488;-58
2022/07/27 22:52:47;;;;;;;14.40;12.65;;;;;;;;;;5093820;28;20031;-58
2022/07/27 22:55:13;;;;;;;18.10;12.73;;;;;;;;;;5093865;28;20115;-57
2022/07/27 22:57:39;;;;;;;18.20;13.63;;;;;;;;;;5101617;28;20051;-58
2022/07/27 23:00:05;;;;;;;14.50;12.98;;;;;;;;;;5111640;28;20031;-58
2022/07/27 23:02:33;;;;;;;14.70;11.88;;;;;;;;;;5111175;28;20110;-57
2022/07/27 23:04:59;;;;;;;14.05;12.55;;;;;;;;;;5113629;28;20027;-58
2022/07/27 23:07:25;;;;;;;14.13;12.43;;;;;;;;;;5105756;28;20024;-58
2022/07/27 23:09:51;;;;;;;14.93;13.38;;;;;;;;;;5104327;28;20360;-58
2022/07/27 23:12:17;;;;;;;18.08;14.02;;;;;;;;;;5113380;28;20027;-58
2022/07/27 23:14:43;;;;;;;13.98;12.43;;;;;;;;;;5101030;28;20036;-57
2022/07/27 23:17:09;;;;;;;14.90;13.40;;;;;;;;;;5093264;28;20028;-59
2022/07/27 23:19:35;;;;;;;15.73;13.27;;;;;;;;;;5083116;28;20045;-58
2022/07/27 23:22:01;;;;;;;14.55;13.05;;;;;;;;;;5095718;28;20496;-58
2022/07/27 23:24:27;;;;;;;23.95;13.93;;;;;;;;;;5093286;28;20069;-58
2022/07/27 23:26:53;;;;;;;17.15;13.38;;;;;;;;;;5074790;28;20024;-55
2022/07/27 23:29:19;;;;;;;14.93;13.05;;;;;;;;;;5097543;28;20077;-58
2022/07/27 23:31:45;;;;;;;16.00;12.70;;;;;;;;;;5092894;28;20028;-57
2022/07/27 23:34:12;;;;;;;15.97;12.23;;;;;;;;;;5093163;28;20270;-56
2022/07/27 23:36:41;;;;;;;18.73;14.18;;;;;;;;;;5094158;28;20273;-58
2022/07/27 23:39:07;;;;;;;15.45;13.43;;;;;;;;;;5096331;28;20030;-59
2022/07/27 23:41:33;;;;;;;15.37;12.97;;;;;;;;;;5112791;28;20027;-58
2022/07/27 23:43:59;;;;;;;15.30;13.60;;;;;;;;;;5102995;28;20266;-58
2022/07/27 23:46:25;;;;;;;15.13;13.40;;;;;;;;;;5092886;28;20111;-59
2022/07/27 23:48:51;;;;;;;16.00;14.40;;;;;;;;;;5093935;28;20039;-56
2022/07/27 23:51:18;;;;;;;15.80;13.43;;;;;;;;;;5107431;28;20028;-59
2022/07/27 23:53:44;;;;;;;16.65;13.98;;;;;;;;;;5101845;28;20028;-58
2022/07/27 23:56:10;;;;;;;18.45;13.32;;;;;;;;;;5112587;28;20024;-57
2022/07/27 23:58:36;;;;;;;14.23;12.52;;;;;;;;;;5102869;28;20031;-57
